createdAt,value
2023-07-31T00:01:21.776Z,3.00
2023-07-31T00:03:54.876Z,2.90
2023-07-31T00:06:25.355Z,2.92
2023-07-31T00:08:55.713Z,3.40
2023-07-31T00:11:26.244Z,2.97
2023-07-31T00:13:57.599Z,3.15
2023-07-31T00:16:28.082Z,3.22
2023-07-31T00:19:01.171Z,2.95
2023-07-31T00:21:31.583Z,3.53
2023-07-31T00:23:59.385Z,3.45
2023-07-31T00:26:29.766Z,3.38
2023-07-31T00:29:00.335Z,3.88
2023-07-31T00:31:30.781Z,3.88
2023-07-31T00:34:03.858Z,3.95
2023-07-31T00:36:34.378Z,3.92
2023-07-31T00:39:05.946Z,3.35
2023-07-31T00:41:36.325Z,3.35
2023-07-31T00:44:07.090Z,3.08
2023-07-31T00:51:40.726Z,3.05
2023-07-31T00:54:11.523Z,3.15
2023-07-31T00:59:12.190Z,2.78
2023-07-31T01:01:42.758Z,3.25
2023-07-31T01:04:14.100Z,3.33
2023-07-31T01:06:50.949Z,3.47
2023-07-31T01:09:25.102Z,4.60
2023-07-31T01:11:57.638Z,3.78
2023-07-31T01:14:28.228Z,3.20
2023-07-31T01:16:58.689Z,3.15
2023-07-31T01:19:30.641Z,4.10
2023-07-31T01:22:17.089Z,2.67
2023-07-31T01:24:55.012Z,3.00
2023-07-31T01:27:29.227Z,3.05
2023-07-31T01:30:01.348Z,2.92
2023-07-31T01:32:33.209Z,3.13
2023-07-31T01:35:04.526Z,3.67
2023-07-31T01:37:34.907Z,2.90
2023-07-31T01:40:05.565Z,3.00
2023-07-31T01:45:09.167Z,2.67
2023-07-31T01:47:39.615Z,3.08
2023-07-31T01:50:10.817Z,2.92
2023-07-31T01:52:41.236Z,3.65
2023-07-31T01:55:12.165Z,3.70
2023-07-31T01:57:42.568Z,3.30
2023-07-31T02:00:16.086Z,3.10
2023-07-31T02:02:46.541Z,3.03
2023-07-31T02:05:17.017Z,3.05
2023-07-31T02:07:47.423Z,2.95
2023-07-31T02:10:18.011Z,3.25
2023-07-31T02:12:48.487Z,2.78
2023-07-31T02:15:22.488Z,3.25
2023-07-31T02:17:52.884Z,3.00
2023-07-31T02:20:23.382Z,2.53
2023-07-31T02:22:53.823Z,3.05
2023-07-31T02:25:24.316Z,4.20
2023-07-31T02:27:54.748Z,2.92
2023-07-31T02:30:27.902Z,2.28
2023-07-31T02:32:58.377Z,3.17
2023-07-31T02:35:29.139Z,2.55
2023-07-31T02:37:59.601Z,2.85
2023-07-31T02:40:30.198Z,2.58
2023-07-31T02:43:00.607Z,2.90
2023-07-31T02:45:33.653Z,4.28
2023-07-31T02:48:04.137Z,2.63
2023-07-31T02:50:34.598Z,3.05
2023-07-31T02:53:04.992Z,3.15
2023-07-31T02:55:35.415Z,4.35
2023-07-31T02:58:05.800Z,3.90
2023-07-31T03:00:38.860Z,2.92
2023-07-31T03:03:09.280Z,2.38
2023-07-31T03:05:39.824Z,3.70
2023-07-31T03:08:10.207Z,3.33
2023-07-31T03:10:40.610Z,3.53
2023-07-31T03:13:11.088Z,4.18
2023-07-31T03:15:46.688Z,2.25
2023-07-31T03:18:17.134Z,2.50
2023-07-31T03:20:47.962Z,2.50
2023-07-31T03:23:18.396Z,2.95
2023-07-31T03:26:00.374Z,2.88
2023-07-31T03:28:31.141Z,3.88
2023-07-31T03:31:04.382Z,2.63
2023-07-31T03:33:34.791Z,2.40
2023-07-31T03:36:05.272Z,2.55
2023-07-31T03:38:35.670Z,2.35
2023-07-31T03:41:07.599Z,2.53
2023-07-31T03:43:37.998Z,2.42
2023-07-31T03:46:11.060Z,2.58
2023-07-31T03:48:41.454Z,2.60
2023-07-31T03:51:11.874Z,2.53
2023-07-31T03:53:42.279Z,2.42
2023-07-31T03:56:12.808Z,3.05
2023-07-31T03:58:43.214Z,2.53
2023-07-31T04:01:16.388Z,2.22
2023-07-31T04:03:46.809Z,3.72
2023-07-31T04:06:19.347Z,3.17
2023-07-31T04:08:49.712Z,3.08
2023-07-31T04:11:20.164Z,3.13
2023-07-31T04:13:50.624Z,3.90
2023-07-31T04:16:23.830Z,3.08
2023-07-31T04:18:54.288Z,3.10
2023-07-31T04:21:24.751Z,2.97
2023-07-31T04:23:57.276Z,3.10
2023-07-31T04:26:27.860Z,3.13
2023-07-31T04:28:58.460Z,4.07
2023-07-31T04:31:31.672Z,2.65
2023-07-31T04:34:02.076Z,2.72
2023-07-31T04:36:32.500Z,2.92
2023-07-31T04:39:02.912Z,2.40
2023-07-31T04:41:33.508Z,2.40
2023-07-31T04:44:05.016Z,3.03
2023-07-31T04:46:39.217Z,3.05
2023-07-31T04:49:09.895Z,2.67
2023-07-31T04:51:40.456Z,2.95
2023-07-31T04:54:10.869Z,3.38
2023-07-31T04:56:41.500Z,3.50
2023-07-31T04:59:11.960Z,4.95
2023-07-31T05:01:46.549Z,3.25
2023-07-31T05:04:17.772Z,3.08
2023-07-31T05:06:48.585Z,3.13
2023-07-31T05:11:50.039Z,2.53
2023-07-31T05:14:21.555Z,3.25
2023-07-31T05:16:54.693Z,3.03
2023-07-31T05:19:25.234Z,3.15
2023-07-31T05:21:55.650Z,3.08
2023-07-31T05:24:26.082Z,4.72
2023-07-31T05:26:56.507Z,4.43
2023-07-31T05:29:26.928Z,2.67
2023-07-31T05:31:59.997Z,3.35
2023-07-31T05:34:30.448Z,2.53
2023-07-31T05:37:00.908Z,2.53
2023-07-31T05:39:31.313Z,2.72
2023-07-31T05:42:01.713Z,2.72
2023-07-31T05:44:32.058Z,2.63
2023-07-31T05:47:05.090Z,3.28
2023-07-31T05:49:35.489Z,3.03
2023-07-31T05:52:05.928Z,4.22
2023-07-31T05:54:36.753Z,3.10
2023-07-31T05:59:37.503Z,3.03
2023-07-31T06:02:11.166Z,4.10
2023-07-31T06:04:41.703Z,2.90
2023-07-31T06:07:12.307Z,2.95
2023-07-31T06:09:42.765Z,2.97
2023-07-31T06:12:14.103Z,2.75
2023-07-31T06:14:44.635Z,3.88
2023-07-31T06:17:17.782Z,3.17
2023-07-31T06:19:48.312Z,3.33
2023-07-31T06:22:18.895Z,3.22
2023-07-31T06:24:49.383Z,3.97
2023-07-31T06:27:22.651Z,5.57
2023-07-31T06:29:53.073Z,5.75
2023-07-31T06:32:26.338Z,3.90
2023-07-31T06:34:56.739Z,3.30
2023-07-31T06:37:27.485Z,4.57
2023-07-31T06:39:57.876Z,4.00
2023-07-31T06:42:28.376Z,4.47
2023-07-31T06:44:58.709Z,3.97
2023-07-31T06:47:31.856Z,4.28
2023-07-31T06:50:02.313Z,3.17
2023-07-31T06:52:32.884Z,5.28
2023-07-31T06:55:07.645Z,3.70
2023-07-31T06:57:38.242Z,3.42
2023-07-31T07:00:09.802Z,4.05
2023-07-31T07:02:43.429Z,3.45
2023-07-31T07:05:14.125Z,5.53
2023-07-31T07:07:45.380Z,3.38
2023-07-31T07:10:15.783Z,3.78
2023-07-31T07:12:46.225Z,3.88
2023-07-31T07:15:16.606Z,3.47
2023-07-31T07:17:49.694Z,3.38
2023-07-31T07:20:21.338Z,3.08
2023-07-31T07:22:51.828Z,3.50
2023-07-31T07:25:22.513Z,3.17
2023-07-31T07:27:53.165Z,3.05
2023-07-31T07:30:26.174Z,5.15
2023-07-31T07:32:59.298Z,3.58
2023-07-31T07:35:29.985Z,4.50
2023-07-31T07:38:00.518Z,3.80
2023-07-31T07:40:30.962Z,3.10
2023-07-31T07:43:01.713Z,3.33
2023-07-31T07:48:04.949Z,3.22
2023-07-31T07:50:35.334Z,3.00
2023-07-31T07:53:05.842Z,2.58
2023-07-31T07:55:36.303Z,2.90
2023-07-31T07:58:06.798Z,2.85
2023-07-31T08:00:37.223Z,2.47
2023-07-31T08:03:11.501Z,1.55
2023-07-31T08:05:41.952Z,2.08
2023-07-31T08:08:12.516Z,2.30
2023-07-31T08:10:42.901Z,2.13
2023-07-31T08:13:14.471Z,1.80
2023-07-31T08:15:45.948Z,3.40
2023-07-31T08:18:19.197Z,2.05
2023-07-31T08:20:51.762Z,2.05
2023-07-31T08:23:22.258Z,2.08
2023-07-31T08:25:52.629Z,3.55
2023-07-31T08:28:23.102Z,1.75
2023-07-31T08:30:54.084Z,1.63
2023-07-31T08:33:27.214Z,1.55
2023-07-31T08:35:57.634Z,1.75
2023-07-31T08:38:28.609Z,2.92
2023-07-31T08:40:58.969Z,1.55
2023-07-31T08:43:30.789Z,1.85
2023-07-31T08:46:01.589Z,2.03
2023-07-31T08:48:36.257Z,1.83
2023-07-31T08:51:06.728Z,1.35
2023-07-31T08:53:37.183Z,1.30
2023-07-31T08:56:08.279Z,1.48
2023-07-31T08:58:39.915Z,2.08
2023-07-31T09:01:11.483Z,1.35
2023-07-31T09:03:45.544Z,2.00
2023-07-31T09:06:17.381Z,1.30
2023-07-31T09:08:47.813Z,1.95
2023-07-31T09:11:18.195Z,2.92
2023-07-31T09:13:48.680Z,1.63
2023-07-31T09:16:19.116Z,2.13
2023-07-31T09:19:03.347Z,1.48
2023-07-31T09:21:33.929Z,1.88
2023-07-31T09:24:04.376Z,1.95
2023-07-31T09:26:35.802Z,1.75
2023-07-31T09:29:09.624Z,2.17
2023-07-31T09:31:44.684Z,1.50
2023-07-31T09:34:17.933Z,1.73
2023-07-31T09:36:48.914Z,2.00
2023-07-31T09:39:21.592Z,2.17
2023-07-31T09:41:52.953Z,1.27
2023-07-31T09:44:23.937Z,2.55
2023-07-31T09:46:55.035Z,1.33
2023-07-31T09:49:30.031Z,1.50
2023-07-31T09:52:00.428Z,2.30
2023-07-31T09:54:30.847Z,2.30
2023-07-31T09:57:01.865Z,1.20
2023-07-31T09:59:32.319Z,2.00
2023-07-31T10:02:02.768Z,1.55
2023-07-31T10:04:35.908Z,1.42
2023-07-31T10:07:08.520Z,1.60
2023-07-31T10:09:39.208Z,1.48
2023-07-31T10:12:11.122Z,1.92
2023-07-31T10:14:41.599Z,1.38
2023-07-31T10:17:12.927Z,1.55
2023-07-31T10:19:46.429Z,1.58
2023-07-31T10:22:17.157Z,1.45
2023-07-31T10:24:47.911Z,1.63
2023-07-31T10:27:18.340Z,1.83
2023-07-31T10:29:51.052Z,2.00
2023-07-31T10:32:22.053Z,2.92
2023-07-31T10:34:55.373Z,1.30
2023-07-31T10:37:29.670Z,1.50
2023-07-31T10:40:00.909Z,1.70
2023-07-31T10:42:35.557Z,1.75
2023-07-31T10:45:07.131Z,1.55
2023-07-31T10:47:41.842Z,2.08
2023-07-31T10:50:22.988Z,1.85
2023-07-31T10:52:53.918Z,2.20
2023-07-31T10:55:34.794Z,1.90
2023-07-31T10:58:11.219Z,1.70
2023-07-31T11:00:42.230Z,1.90
2023-07-31T11:03:13.585Z,2.40
2023-07-31T11:05:50.889Z,2.25
2023-07-31T11:10:52.984Z,2.10
2023-07-31T11:13:23.576Z,2.38
2023-07-31T11:15:54.175Z,2.42
2023-07-31T11:20:57.685Z,2.50
2023-07-31T11:23:28.157Z,2.35
2023-07-31T11:26:04.213Z,2.65
2023-07-31T11:28:37.172Z,3.30
2023-07-31T11:31:07.923Z,2.50
2023-07-31T11:33:38.461Z,3.03
2023-07-31T11:36:18.914Z,2.67
2023-07-31T11:38:49.636Z,2.53
2023-07-31T11:41:20.986Z,3.33
2023-07-31T11:43:51.594Z,3.33
2023-07-31T11:46:22.141Z,3.55
2023-07-31T11:48:52.881Z,2.88
2023-07-31T11:53:56.645Z,2.92
2023-07-31T11:56:27.703Z,2.70
2023-07-31T11:58:58.679Z,3.65
2023-07-31T12:01:29.764Z,3.10
2023-07-31T12:04:01.069Z,2.67
2023-07-31T12:06:41.151Z,5.03
2023-07-31T12:09:15.519Z,3.10
2023-07-31T12:11:49.185Z,2.50
2023-07-31T12:14:26.177Z,2.83
2023-07-31T12:17:00.008Z,4.32
2023-07-31T12:19:31.974Z,4.15
2023-07-31T12:22:03.439Z,3.88
2023-07-31T12:24:39.213Z,3.17
2023-07-31T12:27:13.278Z,2.88
2023-07-31T12:29:44.585Z,2.78
2023-07-31T12:32:25.451Z,3.22
2023-07-31T12:34:56.032Z,3.13
2023-07-31T12:37:26.515Z,3.28
2023-07-31T12:40:07.500Z,2.65
2023-07-31T12:42:39.522Z,2.47
2023-07-31T12:45:10.351Z,3.05
2023-07-31T12:47:40.965Z,3.20
2023-07-31T12:52:41.542Z,3.28
2023-07-31T12:55:14.778Z,2.88
2023-07-31T12:57:45.525Z,2.53
2023-07-31T13:00:16.975Z,4.85
2023-07-31T13:02:47.723Z,3.47
2023-07-31T13:05:18.645Z,4.60
2023-07-31T13:07:51.190Z,3.63
2023-07-31T13:10:28.148Z,4.03
2023-07-31T13:12:58.759Z,3.40
2023-07-31T13:15:29.360Z,4.75
2023-07-31T13:20:30.009Z,3.05
2023-07-31T13:23:00.555Z,3.78
2023-07-31T13:28:04.229Z,2.97
2023-07-31T13:30:34.772Z,2.88
2023-07-31T13:33:05.417Z,3.33
2023-07-31T13:38:07.107Z,2.78
2023-07-31T13:40:37.499Z,2.15
2023-07-31T13:43:10.683Z,2.35
2023-07-31T13:45:41.607Z,2.33
2023-07-31T13:48:12.141Z,2.13
2023-07-31T13:50:42.542Z,2.38
2023-07-31T13:53:10.343Z,1.58
2023-07-31T13:55:40.848Z,2.42
2023-07-31T13:58:13.819Z,1.73
2023-07-31T14:00:44.316Z,1.80
2023-07-31T14:03:14.892Z,2.63
2023-07-31T14:05:45.423Z,2.05
2023-07-31T14:08:15.838Z,1.80
2023-07-31T14:10:46.282Z,1.40
2023-07-31T14:13:19.327Z,0.95
2023-07-31T14:15:49.935Z,1.77
2023-07-31T14:18:20.612Z,1.23
2023-07-31T14:20:51.170Z,1.33
2023-07-31T14:23:21.554Z,1.60
2023-07-31T14:25:52.205Z,0.98
2023-07-31T14:28:25.264Z,0.85
2023-07-31T14:30:56.034Z,2.17
2023-07-31T14:35:56.657Z,0.98
2023-07-31T14:38:27.156Z,1.20
2023-07-31T14:40:57.832Z,1.15
2023-07-31T14:46:01.403Z,1.63
2023-07-31T14:48:32.064Z,1.42
2023-07-31T14:51:02.598Z,2.17
2023-07-31T14:53:32.963Z,1.48
2023-07-31T14:56:03.971Z,1.67
2023-07-31T14:58:34.328Z,2.00
2023-07-31T15:01:07.524Z,2.00
2023-07-31T15:03:38.092Z,3.47
2023-07-31T15:06:09.322Z,2.72
2023-07-31T15:08:40.270Z,1.70
2023-07-31T15:11:10.788Z,1.98
2023-07-31T15:13:41.168Z,2.17
2023-07-31T15:16:14.228Z,1.38
2023-07-31T15:24:23.069Z,1.70
2023-07-31T15:26:53.440Z,2.10
2023-07-31T15:29:23.843Z,1.77
2023-07-31T15:31:57.208Z,3.97
2023-07-31T15:34:27.847Z,1.35
2023-07-31T15:36:58.282Z,1.55
2023-07-31T15:39:28.879Z,2.25
2023-07-31T15:41:59.295Z,2.22
2023-07-31T15:44:29.795Z,2.55
2023-07-31T15:47:02.807Z,1.40
2023-07-31T15:49:33.218Z,1.25
2023-07-31T15:52:03.972Z,1.05
2023-07-31T15:57:04.492Z,1.20
2023-07-31T15:59:34.959Z,1.13
2023-07-31T16:02:08.223Z,0.88
2023-07-31T16:04:39.015Z,1.25
2023-07-31T16:07:09.753Z,0.68
2023-07-31T16:12:11.502Z,0.95
2023-07-31T16:14:41.985Z,0.98
2023-07-31T16:17:14.991Z,1.13
2023-07-31T16:19:45.620Z,0.75
2023-07-31T16:22:16.016Z,2.22
2023-07-31T16:24:46.530Z,2.00
2023-07-31T16:27:16.962Z,0.52
2023-07-31T16:29:47.580Z,1.95
2023-07-31T16:32:20.618Z,1.25
2023-07-31T16:34:51.118Z,0.90
2023-07-31T16:37:21.487Z,1.15
2023-07-31T16:39:53.221Z,1.40
2023-07-31T16:42:23.794Z,0.95
2023-07-31T16:44:54.285Z,1.05
2023-07-31T16:47:27.308Z,0.95
2023-07-31T16:49:57.869Z,1.58
2023-07-31T16:52:29.208Z,0.95
2023-07-31T16:54:59.652Z,1.02
2023-07-31T16:57:30.212Z,2.25
2023-07-31T17:00:00.624Z,0.90
2023-07-31T17:02:33.734Z,0.73
2023-07-31T17:05:04.261Z,1.83
2023-07-31T17:07:34.679Z,0.65
2023-07-31T17:10:05.124Z,0.77
2023-07-31T17:12:35.543Z,0.60
2023-07-31T17:15:06.192Z,1.05
2023-07-31T17:17:39.224Z,0.88
2023-07-31T17:20:10.583Z,1.20
2023-07-31T17:22:48.592Z,0.80
2023-07-31T17:25:20.263Z,2.13
2023-07-31T17:27:53.084Z,0.70
2023-07-31T17:30:24.189Z,1.20
2023-07-31T17:32:57.258Z,1.02
2023-07-31T17:35:27.744Z,1.33
2023-07-31T17:37:59.328Z,1.02
2023-07-31T17:40:30.328Z,1.17
2023-07-31T17:43:00.698Z,0.88
2023-07-31T17:45:32.606Z,0.93
2023-07-31T17:48:05.696Z,1.45
2023-07-31T17:50:36.867Z,1.13
2023-07-31T17:53:07.836Z,1.02
2023-07-31T17:55:38.646Z,0.82
2023-07-31T17:58:09.354Z,1.90
2023-07-31T18:03:14.100Z,1.02
2023-07-31T18:05:44.832Z,0.90
2023-07-31T18:08:15.256Z,1.05
2023-07-31T18:10:48.612Z,1.27
2023-07-31T18:13:19.320Z,3.05
2023-07-31T18:18:22.658Z,1.60
2023-07-31T18:20:53.138Z,2.47
2023-07-31T18:23:23.547Z,1.75
2023-07-31T18:25:53.986Z,1.90
2023-07-31T18:28:24.483Z,1.40
2023-07-31T18:31:00.110Z,2.03
2023-07-31T18:33:33.101Z,3.15
2023-07-31T18:36:04.552Z,1.45
2023-07-31T18:38:35.157Z,1.33
2023-07-31T18:41:05.587Z,1.10
2023-07-31T18:43:35.997Z,1.13
2023-07-31T18:46:06.489Z,1.13
2023-07-31T18:48:39.519Z,1.33
2023-07-31T18:51:09.989Z,1.17
2023-07-31T18:53:40.383Z,1.13
2023-07-31T18:56:10.840Z,1.15
2023-07-31T18:58:41.300Z,0.98
2023-07-31T19:01:11.787Z,1.23
2023-07-31T19:03:44.818Z,1.77
2023-07-31T19:06:15.566Z,1.10
2023-07-31T19:08:46.403Z,1.85
2023-07-31T19:11:31.405Z,0.60
2023-07-31T19:14:03.838Z,0.82
2023-07-31T19:16:34.335Z,0.55
2023-07-31T19:19:07.355Z,0.98
2023-07-31T19:21:37.918Z,0.93
2023-07-31T19:24:08.788Z,0.93
2023-07-31T19:26:39.456Z,0.80
2023-07-31T19:29:11.665Z,0.75
2023-07-31T19:31:43.891Z,0.98
2023-07-31T19:34:16.988Z,1.35
2023-07-31T19:36:49.415Z,3.13
2023-07-31T19:39:20.050Z,1.70
2023-07-31T19:44:20.761Z,0.90
2023-07-31T19:46:51.243Z,1.63
2023-07-31T19:49:24.295Z,2.15
2023-07-31T19:51:54.881Z,1.70
2023-07-31T19:54:25.293Z,1.42
2023-07-31T19:56:55.774Z,1.88
2023-07-31T19:59:26.631Z,1.80
2023-07-31T20:01:58.160Z,2.05
2023-07-31T20:04:31.352Z,3.22
2023-07-31T20:07:01.953Z,1.67
2023-07-31T20:09:32.380Z,1.58
2023-07-31T20:12:03.239Z,2.28
2023-07-31T20:14:34.109Z,2.33
2023-07-31T20:17:04.593Z,1.70
2023-07-31T20:19:37.730Z,1.92
2023-07-31T20:22:08.420Z,2.03
2023-07-31T20:24:38.849Z,1.90
2023-07-31T20:27:10.045Z,2.33
2023-07-31T20:29:42.182Z,1.98
2023-07-31T20:32:12.639Z,2.28
2023-07-31T20:34:45.664Z,2.00
2023-07-31T20:37:16.120Z,2.67
2023-07-31T20:39:46.507Z,2.67
2023-07-31T20:42:19.027Z,2.88
2023-07-31T20:44:49.404Z,3.22
2023-07-31T20:47:19.870Z,2.85
2023-07-31T20:49:52.921Z,3.22
2023-07-31T20:52:23.358Z,3.45
2023-07-31T20:54:55.165Z,3.08
2023-07-31T20:57:25.627Z,3.25
2023-07-31T20:59:56.025Z,3.45
2023-07-31T21:02:26.924Z,5.22
2023-07-31T21:05:00.021Z,2.92
2023-07-31T21:07:30.547Z,3.28
2023-07-31T21:10:01.010Z,3.75
2023-07-31T21:12:31.506Z,4.75
2023-07-31T21:15:01.921Z,3.90
2023-07-31T21:17:32.408Z,3.83
2023-07-31T21:20:05.496Z,3.92
2023-07-31T21:22:35.901Z,3.60
2023-07-31T21:25:06.388Z,3.88
2023-07-31T21:27:37.093Z,4.43
2023-07-31T21:30:07.809Z,4.30
2023-07-31T21:32:38.301Z,4.13
2023-07-31T21:35:11.806Z,5.95
2023-07-31T21:37:42.292Z,3.95
2023-07-31T21:40:13.268Z,3.53
2023-07-31T21:42:43.794Z,3.25
2023-07-31T21:45:14.443Z,3.22
2023-07-31T21:47:45.028Z,3.30
2023-07-31T21:50:18.037Z,3.10
2023-07-31T21:52:48.482Z,3.03
2023-07-31T21:55:19.072Z,2.25
2023-07-31T21:57:49.610Z,2.65
2023-07-31T22:00:20.211Z,2.10
2023-07-31T22:02:50.734Z,2.58
2023-07-31T22:05:23.864Z,2.47
2023-07-31T22:07:54.384Z,2.08
2023-07-31T22:10:24.754Z,3.28
2023-07-31T22:12:55.215Z,3.00
2023-07-31T22:15:25.685Z,2.55
2023-07-31T22:17:56.247Z,2.58
2023-07-31T22:20:29.639Z,2.85
2023-07-31T22:23:00.095Z,2.17
2023-07-31T22:25:30.903Z,1.92
2023-07-31T22:28:14.853Z,2.33
2023-07-31T22:30:50.865Z,1.70
2023-07-31T22:33:21.307Z,1.83
2023-07-31T22:35:55.817Z,1.70
2023-07-31T22:38:26.425Z,1.77
2023-07-31T22:40:56.863Z,1.63
2023-07-31T22:43:27.421Z,1.55
2023-07-31T22:45:57.832Z,1.60
2023-07-31T22:48:28.322Z,1.95
2023-07-31T22:51:01.355Z,3.13
2023-07-31T22:53:34.157Z,2.25
2023-07-31T22:56:07.026Z,2.35
2023-07-31T22:58:40.318Z,2.53
2023-07-31T23:01:11.821Z,2.83
2023-07-31T23:03:42.260Z,2.85
2023-07-31T23:06:15.647Z,2.85
2023-07-31T23:08:46.265Z,3.75
2023-07-31T23:11:16.676Z,3.55
2023-07-31T23:13:47.233Z,3.42
2023-07-31T23:16:17.655Z,2.60
2023-07-31T23:18:48.118Z,3.22
2023-07-31T23:21:21.179Z,3.55
2023-07-31T23:23:51.577Z,2.65
2023-07-31T23:26:21.995Z,3.60
2023-07-31T23:28:52.395Z,2.45
2023-07-31T23:31:22.777Z,2.60
2023-07-31T23:33:53.305Z,2.50
2023-07-31T23:36:26.400Z,3.90
2023-07-31T23:38:56.984Z,2.75
2023-07-31T23:41:27.421Z,3.20
2023-07-31T23:43:58.426Z,2.58
2023-07-31T23:46:28.787Z,3.35
2023-07-31T23:48:59.370Z,3.85
2023-07-31T23:51:32.414Z,3.70
2023-07-31T23:54:02.982Z,3.63
2023-07-31T23:56:33.375Z,3.97
2023-07-31T23:59:03.889Z,3.50
